sensor_id;sensor_type;location;lat;lon;timestamp;pressure;altitude;pressure_sealevel;temperature;humidity
4133;BME280;2080;51.038;7.008;2023-02-28T00:00:36;78822.94;;;-142.53;100.00
4133;BME280;2080;51.038;7.008;2023-02-28T00:03:02;78824.88;;;-142.53;100.00
4133;BME280;2080;51.038;7.008;2023-02-28T00:05:28;78819.03;;;-142.53;100.00
4133;BME280;2080;51.038;7.008;2023-02-28T00:07:54;78811.25;;;-142.53;100.00
4133;BME280;2080;51.038;7.008;2023-02-28T00:10:25;78817.09;;;-142.53;100.00
4133;BME280;2080;51.038;7.008;2023-02-28T00:12:52;78811.25;;;-142.53;100.00
4133;BME280;2080;51.038;7.008;2023-02-28T00:15:21;78807.38;;;-142.53;100.00
4133;BME280;2080;51.038;7.008;2023-02-28T00:17:47;78803.50;;;-142.53;100.00
4133;BME280;2080;51.038;7.008;2023-02-28T00:20:13;78811.25;;;-142.53;100.00
4133;BME280;2080;51.038;7.008;2023-02-28T00:22:41;78803.50;;;-142.53;100.00
4133;BME280;2080;51.038;7.008;2023-02-28T00:25:08;78803.50;;;-142.53;100.00
4133;BME280;2080;51.038;7.008;2023-02-28T00:27:35;78803.50;;;-142.53;100.00
4133;BME280;2080;51.038;7.008;2023-02-28T00:30:00;78807.38;;;-142.53;100.00
4133;BME280;2080;51.038;7.008;2023-02-28T00:32:26;78805.44;;;-142.53;100.00
4133;BME280;2080;51.038;7.008;2023-02-28T00:34:51;78799.59;;;-142.53;99.24
4133;BME280;2080;51.038;7.008;2023-02-28T00:37:19;78799.59;;;-142.53;100.00
4133;BME280;2080;51.038;7.008;2023-02-28T00:39:45;78803.50;;;-142.53;100.00
4133;BME280;2080;51.038;7.008;2023-02-28T00:42:10;78807.38;;;-142.53;100.00
4133;BME280;2080;51.038;7.008;2023-02-28T00:44:35;78811.25;;;-142.53;100.00
4133;BME280;2080;51.038;7.008;2023-02-28T00:47:01;78819.03;;;-142.53;100.00
4133;BME280;2080;51.038;7.008;2023-02-28T00:49:28;78811.25;;;-142.53;100.00
4133;BME280;2080;51.038;7.008;2023-02-28T00:51:55;78807.38;;;-142.53;100.00
4133;BME280;2080;51.038;7.008;2023-02-28T00:54:21;78803.50;;;-142.53;100.00
4133;BME280;2080;51.038;7.008;2023-02-28T00:56:47;78803.50;;;-142.53;100.00
4133;BME280;2080;51.038;7.008;2023-02-28T00:59:14;78807.38;;;-142.53;100.00
4133;BME280;2080;51.038;7.008;2023-02-28T01:01:39;78815.16;;;-142.53;100.00
4133;BME280;2080;51.038;7.008;2023-02-28T01:04:05;78822.94;;;-142.53;100.00
4133;BME280;2080;51.038;7.008;2023-02-28T01:06:33;78822.94;;;-142.53;100.00
4133;BME280;2080;51.038;7.008;2023-02-28T01:09:01;78820.97;;;-142.53;100.00
4133;BME280;2080;51.038;7.008;2023-02-28T01:11:26;78819.03;;;-142.53;100.00
4133;BME280;2080;51.038;7.008;2023-02-28T01:13:56;78822.94;;;-142.53;100.00
4133;BME280;2080;51.038;7.008;2023-02-28T01:16:22;78819.03;;;-142.53;100.00
4133;BME280;2080;51.038;7.008;2023-02-28T01:18:47;78834.59;;;-142.53;100.00
4133;BME280;2080;51.038;7.008;2023-02-28T01:21:16;78846.25;;;-142.53;100.00
4133;BME280;2080;51.038;7.008;2023-02-28T01:23:43;78857.91;;;-142.53;100.00
4133;BME280;2080;51.038;7.008;2023-02-28T01:26:11;78857.91;;;-142.53;100.00
4133;BME280;2080;51.038;7.008;2023-02-28T01:28:39;78846.25;;;-142.53;100.00
4133;BME280;2080;51.038;7.008;2023-02-28T01:31:05;78826.81;;;-142.53;100.00
4133;BME280;2080;51.038;7.008;2023-02-28T01:33:31;78819.03;;;-142.53;100.00
4133;BME280;2080;51.038;7.008;2023-02-28T01:36:04;78815.16;;;-142.53;100.00
4133;BME280;2080;51.038;7.008;2023-02-28T01:38:33;78815.16;;;-142.53;100.00
4133;BME280;2080;51.038;7.008;2023-02-28T01:40:59;78815.16;;;-142.53;100.00
4133;BME280;2080;51.038;7.008;2023-02-28T01:43:26;78811.25;;;-142.53;100.00
4133;BME280;2080;51.038;7.008;2023-02-28T01:45:55;78824.88;;;-142.53;100.00
4133;BME280;2080;51.038;7.008;2023-02-28T01:48:32;78830.69;;;-142.53;100.00
4133;BME280;2080;51.038;7.008;2023-02-28T01:51:06;78828.75;;;-142.53;100.00
4133;BME280;2080;51.038;7.008;2023-02-28T01:53:37;78826.81;;;-142.53;100.00
4133;BME280;2080;51.038;7.008;2023-02-28T01:56:09;78826.81;;;-142.53;100.00
4133;BME280;2080;51.038;7.008;2023-02-28T01:58:37;78828.75;;;-142.53;100.00
4133;BME280;2080;51.038;7.008;2023-02-28T02:01:03;78828.75;;;-142.53;100.00
4133;BME280;2080;51.038;7.008;2023-02-28T02:03:30;78826.81;;;-142.53;100.00
4133;BME280;2080;51.038;7.008;2023-02-28T02:05:59;78834.59;;;-142.53;100.00
4133;BME280;2080;51.038;7.008;2023-02-28T02:08:28;78836.53;;;-142.53;100.00
4133;BME280;2080;51.038;7.008;2023-02-28T02:13:26;78826.81;;;-142.53;100.00
4133;BME280;2080;51.038;7.008;2023-02-28T02:16:33;78815.16;;;-142.53;99.17
4133;BME280;2080;51.038;7.008;2023-02-28T02:30:37;78776.28;;;-142.53;94.26
4133;BME280;2080;51.038;7.008;2023-02-28T02:33:23;78766.56;;;-142.53;94.62
4133;BME280;2080;51.038;7.008;2023-02-28T02:35:56;78752.94;;;-142.53;91.12
4133;BME280;2080;51.038;7.008;2023-02-28T02:47:15;78787.94;;;-142.53;95.09
4133;BME280;2080;51.038;7.008;2023-02-28T02:49:42;78784.06;;;-142.53;96.77
4133;BME280;2080;51.038;7.008;2023-02-28T02:52:11;78795.72;;;-142.53;98.07
4133;BME280;2080;51.038;7.008;2023-02-28T02:54:42;78809.31;;;-142.53;98.20
4133;BME280;2080;51.038;7.008;2023-02-28T02:57:21;78815.16;;;-142.53;97.96
4133;BME280;2080;51.038;7.008;2023-02-28T02:59:53;78822.94;;;-142.53;99.78
4133;BME280;2080;51.038;7.008;2023-02-28T03:02:20;78822.94;;;-142.53;100.00
4133;BME280;2080;51.038;7.008;2023-02-28T03:04:52;78830.69;;;-142.53;100.00
4133;BME280;2080;51.038;7.008;2023-02-28T03:07:17;78832.66;;;-142.53;100.00
4133;BME280;2080;51.038;7.008;2023-02-28T03:09:51;78834.59;;;-142.53;100.00
4133;BME280;2080;51.038;7.008;2023-02-28T03:12:18;78830.69;;;-142.53;100.00
4133;BME280;2080;51.038;7.008;2023-02-28T03:17:35;78840.41;;;-142.53;100.00
4133;BME280;2080;51.038;7.008;2023-02-28T03:23:09;78844.31;;;-142.53;100.00
4133;BME280;2080;51.038;7.008;2023-02-28T03:30:39;78873.47;;;-142.53;100.00
4133;BME280;2080;51.038;7.008;2023-02-28T03:33:21;78867.63;;;-142.53;100.00
4133;BME280;2080;51.038;7.008;2023-02-28T03:36:02;78873.47;;;-142.53;100.00
4133;BME280;2080;51.038;7.008;2023-02-28T03:41:15;78881.25;;;-142.53;100.00
4133;BME280;2080;51.038;7.008;2023-02-28T03:43:46;78881.25;;;-142.53;100.00
4133;BME280;2080;51.038;7.008;2023-02-28T03:46:18;78885.13;;;-142.53;100.00
4133;BME280;2080;51.038;7.008;2023-02-28T03:48:57;78894.84;;;-142.53;100.00
4133;BME280;2080;51.038;7.008;2023-02-28T03:51:27;78892.91;;;-142.53;100.00
4133;BME280;2080;51.038;7.008;2023-02-28T03:53:57;78902.63;;;-142.53;100.00
4133;BME280;2080;51.038;7.008;2023-02-28T03:56:32;78912.34;;;-142.53;100.00
4133;BME280;2080;51.038;7.008;2023-02-28T04:01:32;78918.16;;;-142.53;100.00
4133;BME280;2080;51.038;7.008;2023-02-28T04:03:59;78927.88;;;-142.53;100.00
4133;BME280;2080;51.038;7.008;2023-02-28T04:06:24;78924.00;;;-142.53;100.00
4133;BME280;2080;51.038;7.008;2023-02-28T04:08:50;78914.28;;;-142.53;100.00
4133;BME280;2080;51.038;7.008;2023-02-28T04:11:30;78912.34;;;-142.53;100.00
4133;BME280;2080;51.038;7.008;2023-02-28T04:13:57;78914.28;;;-142.53;100.00
4133;BME280;2080;51.038;7.008;2023-02-28T04:16:23;78906.50;;;-142.53;100.00
4133;BME280;2080;51.038;7.008;2023-02-28T04:18:50;78908.44;;;-142.53;100.00
4133;BME280;2080;51.038;7.008;2023-02-28T04:21:16;78910.41;;;-142.53;100.00
4133;BME280;2080;51.038;7.008;2023-02-28T04:23:45;78908.44;;;-142.53;100.00
4133;BME280;2080;51.038;7.008;2023-02-28T04:26:13;78892.91;;;-142.53;100.00
4133;BME280;2080;51.038;7.008;2023-02-28T04:28:43;78889.00;;;-142.53;100.00
4133;BME280;2080;51.038;7.008;2023-02-28T04:31:11;78889.00;;;-142.53;100.00
4133;BME280;2080;51.038;7.008;2023-02-28T04:33:36;78889.00;;;-142.53;100.00
4133;BME280;2080;51.038;7.008;2023-02-28T04:36:04;78885.13;;;-142.53;100.00
4133;BME280;2080;51.038;7.008;2023-02-28T04:38:37;78883.19;;;-142.53;100.00
4133;BME280;2080;51.038;7.008;2023-02-28T04:41:04;78873.47;;;-142.53;100.00
4133;BME280;2080;51.038;7.008;2023-02-28T04:43:31;78881.25;;;-142.53;100.00
4133;BME280;2080;51.038;7.008;2023-02-28T04:46:01;78873.47;;;-142.53;100.00
4133;BME280;2080;51.038;7.008;2023-02-28T04:48:34;78875.41;;;-142.53;98.60
4133;BME280;2080;51.038;7.008;2023-02-28T04:51:05;78861.81;;;-142.53;96.77
4133;BME280;2080;51.038;7.008;2023-02-28T04:53:31;78865.69;;;-142.53;95.32
4133;BME280;2080;51.038;7.008;2023-02-28T04:56:02;78850.13;;;-142.53;96.03
4133;BME280;2080;51.038;7.008;2023-02-28T04:58:27;78846.25;;;-142.53;94.78
4133;BME280;2080;51.038;7.008;2023-02-28T05:00:53;78846.25;;;-142.53;93.13
4133;BME280;2080;51.038;7.008;2023-02-28T05:03:21;78848.19;;;-142.53;93.34
4133;BME280;2080;51.038;7.008;2023-02-28T05:05:47;78852.09;;;-142.53;93.61
4133;BME280;2080;51.038;7.008;2023-02-28T05:08:15;78857.91;;;-142.53;93.56
4133;BME280;2080;51.038;7.008;2023-02-28T05:10:40;78867.63;;;-142.53;94.67
4133;BME280;2080;51.038;7.008;2023-02-28T05:13:11;78877.34;;;-142.53;93.46
4133;BME280;2080;51.038;7.008;2023-02-28T05:15:39;78877.34;;;-142.53;95.79
4133;BME280;2080;51.038;7.008;2023-02-28T05:18:05;78889.00;;;-142.53;95.98
4133;BME280;2080;51.038;7.008;2023-02-28T05:20:33;78896.78;;;-142.53;96.71
4133;BME280;2080;51.038;7.008;2023-02-28T05:23:01;78908.44;;;-142.53;97.16
4133;BME280;2080;51.038;7.008;2023-02-28T05:25:26;78924.00;;;-142.53;98.51
4133;BME280;2080;51.038;7.008;2023-02-28T05:27:51;78925.94;;;-142.53;97.92
4133;BME280;2080;51.038;7.008;2023-02-28T05:30:19;78904.56;;;-142.53;96.29
4133;BME280;2080;51.038;7.008;2023-02-28T05:32:50;78892.91;;;-142.53;96.95
4133;BME280;2080;51.038;7.008;2023-02-28T05:35:16;78898.72;;;-142.53;96.53
4133;BME280;2080;51.038;7.008;2023-02-28T05:37:41;78896.78;;;-142.53;95.35
4133;BME280;2080;51.038;7.008;2023-02-28T05:40:07;78904.56;;;-142.53;94.23
4133;BME280;2080;51.038;7.008;2023-02-28T05:42:36;78904.56;;;-142.53;94.69
4133;BME280;2080;51.038;7.008;2023-02-28T05:45:04;78906.50;;;-142.53;94.54
4133;BME280;2080;51.038;7.008;2023-02-28T05:47:30;78908.44;;;-142.53;95.27
4133;BME280;2080;51.038;7.008;2023-02-28T05:49:56;78924.00;;;-142.53;95.05
4133;BME280;2080;51.038;7.008;2023-02-28T05:52:23;78904.56;;;-142.53;92.81
4133;BME280;2080;51.038;7.008;2023-02-28T05:54:49;78900.69;;;-142.53;90.44
4133;BME280;2080;51.038;7.008;2023-02-28T05:57:16;78892.91;;;-142.53;90.71
4133;BME280;2080;51.038;7.008;2023-02-28T05:59:41;78892.91;;;-142.53;89.95
4133;BME280;2080;51.038;7.008;2023-02-28T06:02:17;78892.91;;;-142.53;90.88
4133;BME280;2080;51.038;7.008;2023-02-28T06:04:43;78904.56;;;-142.53;90.56
4133;BME280;2080;51.038;7.008;2023-02-28T06:07:09;78885.13;;;-142.53;90.00
4133;BME280;2080;51.038;7.008;2023-02-28T06:09:35;78889.00;;;-142.53;90.58
4133;BME280;2080;51.038;7.008;2023-02-28T06:12:03;78896.78;;;-142.53;90.10
4133;BME280;2080;51.038;7.008;2023-02-28T06:14:31;78900.69;;;-142.53;88.55
4133;BME280;2080;51.038;7.008;2023-02-28T06:16:59;78904.56;;;-142.53;89.08
4133;BME280;2080;51.038;7.008;2023-02-28T06:19:27;78908.44;;;-142.53;88.12
4133;BME280;2080;51.038;7.008;2023-02-28T06:21:57;78908.44;;;-142.53;88.36
4133;BME280;2080;51.038;7.008;2023-02-28T06:24:26;78908.44;;;-142.53;87.42
4133;BME280;2080;51.038;7.008;2023-02-28T06:26:53;78910.41;;;-142.53;86.78
4133;BME280;2080;51.038;7.008;2023-02-28T06:29:23;78904.56;;;-142.53;86.69
4133;BME280;2080;51.038;7.008;2023-02-28T06:31:50;78918.16;;;-142.53;86.49
4133;BME280;2080;51.038;7.008;2023-02-28T06:34:16;78924.00;;;-142.53;87.36
4133;BME280;2080;51.038;7.008;2023-02-28T06:36:42;78927.88;;;-142.53;87.49
4133;BME280;2080;51.038;7.008;2023-02-28T06:39:10;78931.78;;;-142.53;85.69
4133;BME280;2080;51.038;7.008;2023-02-28T06:41:35;78925.94;;;-142.53;85.25
4133;BME280;2080;51.038;7.008;2023-02-28T06:44:04;78912.34;;;-142.53;84.56
4133;BME280;2080;51.038;7.008;2023-02-28T06:46:33;78904.56;;;-142.53;85.17
4133;BME280;2080;51.038;7.008;2023-02-28T06:48:58;78916.22;;;-142.53;83.86
4133;BME280;2080;51.038;7.008;2023-02-28T06:51:26;78912.34;;;-142.53;83.62
4133;BME280;2080;51.038;7.008;2023-02-28T06:53:52;78912.34;;;-142.53;83.11
4133;BME280;2080;51.038;7.008;2023-02-28T06:56:18;78900.69;;;-142.53;83.37
4133;BME280;2080;51.038;7.008;2023-02-28T06:58:48;78900.69;;;-142.53;81.02
4133;BME280;2080;51.038;7.008;2023-02-28T07:01:14;78881.25;;;-142.53;81.13
4133;BME280;2080;51.038;7.008;2023-02-28T07:03:40;78881.25;;;-142.53;81.06
4133;BME280;2080;51.038;7.008;2023-02-28T07:06:07;78877.34;;;-142.53;80.49
4133;BME280;2080;51.038;7.008;2023-02-28T07:08:37;78857.91;;;-142.53;77.64
4133;BME280;2080;51.038;7.008;2023-02-28T07:11:06;78850.13;;;-142.53;78.49
4133;BME280;2080;51.038;7.008;2023-02-28T07:13:31;78846.25;;;-142.53;77.71
4133;BME280;2080;51.038;7.008;2023-02-28T07:15:59;78838.47;;;-142.53;75.07
4133;BME280;2080;51.038;7.008;2023-02-28T07:18:25;78824.88;;;-142.53;75.13
4133;BME280;2080;51.038;7.008;2023-02-28T07:20:51;78820.97;;;-142.53;74.72
4133;BME280;2080;51.038;7.008;2023-02-28T07:23:17;78815.16;;;-142.53;72.70
4133;BME280;2080;51.038;7.008;2023-02-28T07:25:42;78799.59;;;-142.53;71.83
4133;BME280;2080;51.038;7.008;2023-02-28T07:28:08;78803.50;;;-142.53;67.82
4133;BME280;2080;51.038;7.008;2023-02-28T07:30:36;78774.34;;;-142.53;66.01
4133;BME280;2080;51.038;7.008;2023-02-28T07:33:02;78772.38;;;-142.53;64.38
4133;BME280;2080;51.038;7.008;2023-02-28T07:35:27;78741.28;;;-142.53;64.22
4133;BME280;2080;51.038;7.008;2023-02-28T07:37:52;78733.53;;;-142.53;62.54
4133;BME280;2080;51.038;7.008;2023-02-28T07:40:18;78731.56;;;-142.53;59.55
4133;BME280;2080;51.038;7.008;2023-02-28T07:42:46;78717.97;;;-142.53;56.38
4133;BME280;2080;51.038;7.008;2023-02-28T07:45:14;78692.69;;;-142.53;56.99
4133;BME280;2080;51.038;7.008;2023-02-28T07:47:41;78694.66;;;-142.53;53.88
4133;BME280;2080;51.038;7.008;2023-02-28T07:50:09;78659.66;;;-142.53;53.57
4133;BME280;2080;51.038;7.008;2023-02-28T07:52:36;78659.66;;;-142.53;51.90
4133;BME280;2080;51.038;7.008;2023-02-28T07:55:02;78655.78;;;-142.53;50.58
4133;BME280;2080;51.038;7.008;2023-02-28T07:57:27;78648.00;;;-142.53;49.59
4133;BME280;2080;51.038;7.008;2023-02-28T07:59:52;78626.63;;;-142.53;49.97
4133;BME280;2080;51.038;7.008;2023-02-28T08:02:20;78620.78;;;-142.53;49.72
4133;BME280;2080;51.038;7.008;2023-02-28T08:04:48;78620.78;;;-142.53;48.85
4133;BME280;2080;51.038;7.008;2023-02-28T08:07:16;78601.34;;;-142.53;49.45
4133;BME280;2080;51.038;7.008;2023-02-28T08:09:42;78603.28;;;-142.53;48.44
4133;BME280;2080;51.038;7.008;2023-02-28T08:12:11;78591.63;;;-142.53;48.83
4133;BME280;2080;51.038;7.008;2023-02-28T08:14:37;78568.31;;;-142.53;47.84
4133;BME280;2080;51.038;7.008;2023-02-28T08:17:03;78543.03;;;-142.53;49.02
4133;BME280;2080;51.038;7.008;2023-02-28T08:19:29;78554.72;;;-142.53;47.15
4133;BME280;2080;51.038;7.008;2023-02-28T08:21:57;78523.59;;;-142.53;47.57
4133;BME280;2080;51.038;7.008;2023-02-28T08:24:23;78506.13;;;-142.53;47.08
4133;BME280;2080;51.038;7.008;2023-02-28T08:26:49;78531.38;;;-142.53;45.22
4133;BME280;2080;51.038;7.008;2023-02-28T08:29:15;78515.84;;;-142.53;45.30
4133;BME280;2080;51.038;7.008;2023-02-28T08:31:40;78488.63;;;-142.53;45.10
4133;BME280;2080;51.038;7.008;2023-02-28T08:34:07;78476.97;;;-142.53;45.87
4133;BME280;2080;51.038;7.008;2023-02-28T08:36:35;78467.25;;;-142.53;45.03
4133;BME280;2080;51.038;7.008;2023-02-28T08:39:00;78463.34;;;-142.53;43.97
4133;BME280;2080;51.038;7.008;2023-02-28T08:41:26;78473.06;;;-142.53;43.23
4133;BME280;2080;51.038;7.008;2023-02-28T08:43:52;78453.66;;;-142.53;43.01
4133;BME280;2080;51.038;7.008;2023-02-28T08:46:19;78461.41;;;-142.53;42.63
4133;BME280;2080;51.038;7.008;2023-02-28T08:48:44;78471.13;;;-142.53;42.85
4133;BME280;2080;51.038;7.008;2023-02-28T08:51:13;78447.81;;;-142.53;42.48
4133;BME280;2080;51.038;7.008;2023-02-28T08:53:39;78438.09;;;-142.53;43.11
4133;BME280;2080;51.038;7.008;2023-02-28T08:56:09;78426.44;;;-142.53;42.56
4133;BME280;2080;51.038;7.008;2023-02-28T08:58:38;78387.56;;;-142.53;42.93
4133;BME280;2080;51.038;7.008;2023-02-28T09:01:14;78410.88;;;-142.53;41.45
4133;BME280;2080;51.038;7.008;2023-02-28T09:03:40;78422.53;;;-142.53;40.80
4133;BME280;2080;51.038;7.008;2023-02-28T09:06:09;78418.66;;;-142.53;41.08
4133;BME280;2080;51.038;7.008;2023-02-28T09:08:35;78432.25;;;-142.53;40.83
4133;BME280;2080;51.038;7.008;2023-02-28T09:11:01;78375.91;;;-142.53;41.94
4133;BME280;2080;51.038;7.008;2023-02-28T09:13:30;78395.34;;;-142.53;41.49
4133;BME280;2080;51.038;7.008;2023-02-28T09:15:58;78375.91;;;-142.53;40.75
4133;BME280;2080;51.038;7.008;2023-02-28T09:18:27;78379.78;;;-142.53;40.58
4133;BME280;2080;51.038;7.008;2023-02-28T09:20:52;78377.84;;;-142.53;41.08
4133;BME280;2080;51.038;7.008;2023-02-28T09:23:18;78372.00;;;-142.53;41.04
4133;BME280;2080;51.038;7.008;2023-02-28T09:25:48;78344.81;;;-142.53;41.57
4133;BME280;2080;51.038;7.008;2023-02-28T09:28:13;78325.38;;;-142.53;40.64
4133;BME280;2080;51.038;7.008;2023-02-28T09:30:41;78294.28;;;-142.53;40.61
4133;BME280;2080;51.038;7.008;2023-02-28T09:33:09;78278.72;;;-142.53;40.88
4133;BME280;2080;51.038;7.008;2023-02-28T09:35:34;78278.72;;;-142.53;40.12
4133;BME280;2080;51.038;7.008;2023-02-28T09:38:02;78276.78;;;-142.53;40.20
4133;BME280;2080;51.038;7.008;2023-02-28T09:40:28;78292.34;;;-142.53;39.14
4133;BME280;2080;51.038;7.008;2023-02-28T09:42:55;78305.94;;;-142.53;39.40
4133;BME280;2080;51.038;7.008;2023-02-28T09:47:55;78290.41;;;-142.53;39.46
4133;BME280;2080;51.038;7.008;2023-02-28T09:50:38;78263.19;;;-142.53;39.69
4133;BME280;2080;51.038;7.008;2023-02-28T09:53:19;78259.28;;;-142.53;39.69
4133;BME280;2080;51.038;7.008;2023-02-28T09:55:57;78270.97;;;-142.53;39.25
4133;BME280;2080;51.038;7.008;2023-02-28T09:58:30;78208.78;;;-142.53;39.50
4133;BME280;2080;51.038;7.008;2023-02-28T10:01:06;78216.53;;;-142.53;38.66
4133;BME280;2080;51.038;7.008;2023-02-28T10:03:39;78199.06;;;-142.53;39.14
4133;BME280;2080;51.038;7.008;2023-02-28T10:08:36;78113.53;;;-142.53;38.57
4133;BME280;2080;51.038;7.008;2023-02-28T10:11:10;78123.25;;;-142.53;38.25
4133;BME280;2080;51.038;7.008;2023-02-28T10:16:51;78111.59;;;-142.53;37.29
4133;BME280;2080;51.038;7.008;2023-02-28T10:24:35;78171.84;;;-142.53;36.60
4133;BME280;2080;51.038;7.008;2023-02-28T10:27:23;78193.22;;;-142.53;37.85
4133;BME280;2080;51.038;7.008;2023-02-28T10:29:54;78247.63;;;-142.53;37.73
4133;BME280;2080;51.038;7.008;2023-02-28T10:32:23;78222.38;;;-142.53;37.87
4133;BME280;2080;51.038;7.008;2023-02-28T10:37:46;78212.66;;;-142.53;37.50
4133;BME280;2080;51.038;7.008;2023-02-28T10:40:25;78154.34;;;-142.53;38.67
4133;BME280;2080;51.038;7.008;2023-02-28T10:45:27;78107.72;;;-142.53;37.69
4133;BME280;2080;51.038;7.008;2023-02-28T10:47:58;78154.34;;;-142.53;38.02
4133;BME280;2080;51.038;7.008;2023-02-28T10:52:54;78158.25;;;-142.53;37.64
4133;BME280;2080;51.038;7.008;2023-02-28T10:55:23;78115.50;;;-142.53;37.73
4133;BME280;2080;51.038;7.008;2023-02-28T10:57:50;78068.84;;;-142.53;37.91
4133;BME280;2080;51.038;7.008;2023-02-28T11:00:22;78084.41;;;-142.53;36.78
4133;BME280;2080;51.038;7.008;2023-02-28T11:02:48;78057.19;;;-142.53;37.35
4133;BME280;2080;51.038;7.008;2023-02-28T11:05:33;77979.47;;;-142.53;37.79
4133;BME280;2080;51.038;7.008;2023-02-28T11:08:10;77921.16;;;-142.53;37.41
4133;BME280;2080;51.038;7.008;2023-02-28T11:10:38;77923.09;;;-142.53;37.15
4133;BME280;2080;51.038;7.008;2023-02-28T11:13:05;77983.34;;;-142.53;36.74
4133;BME280;2080;51.038;7.008;2023-02-28T11:15:32;77995.00;;;-142.53;36.22
4133;BME280;2080;51.038;7.008;2023-02-28T11:20:30;78068.84;;;-142.53;36.98
4133;BME280;2080;51.038;7.008;2023-02-28T11:22:57;78127.16;;;-142.53;37.71
4133;BME280;2080;51.038;7.008;2023-02-28T11:25:32;78115.50;;;-142.53;37.88
4133;BME280;2080;51.038;7.008;2023-02-28T11:28:03;78059.13;;;-142.53;37.72
4133;BME280;2080;51.038;7.008;2023-02-28T11:30:38;78026.09;;;-142.53;38.06
4133;BME280;2080;51.038;7.008;2023-02-28T11:35:53;78002.78;;;-142.53;38.26
4133;BME280;2080;51.038;7.008;2023-02-28T11:38:22;78010.56;;;-142.53;38.24
4133;BME280;2080;51.038;7.008;2023-02-28T11:51:33;78022.22;;;-142.53;39.07
4133;BME280;2080;51.038;7.008;2023-02-28T11:56:32;78006.66;;;-142.53;38.02
4133;BME280;2080;51.038;7.008;2023-02-28T12:05:10;77960.03;;;-142.53;37.63
4133;BME280;2080;51.038;7.008;2023-02-28T12:08:16;77958.09;;;-142.53;37.56
4133;BME280;2080;51.038;7.008;2023-02-28T12:13:29;78018.31;;;-142.53;36.95
4133;BME280;2080;51.038;7.008;2023-02-28T12:27:11;77882.31;;;-142.53;37.11
4133;BME280;2080;51.038;7.008;2023-02-28T12:32:39;77851.22;;;-142.53;37.14
4133;BME280;2080;51.038;7.008;2023-02-28T12:37:38;77874.53;;;-142.53;36.62
4133;BME280;2080;51.038;7.008;2023-02-28T12:40:14;77851.22;;;-142.53;36.19
4133;BME280;2080;51.038;7.008;2023-02-28T12:42:45;77893.97;;;-142.53;35.79
4133;BME280;2080;51.038;7.008;2023-02-28T12:45:18;77892.00;;;-142.53;36.25
4133;BME280;2080;51.038;7.008;2023-02-28T12:47:46;77921.16;;;-142.53;36.02
4133;BME280;2080;51.038;7.008;2023-02-28T12:50:14;77901.72;;;-142.53;37.08
4133;BME280;2080;51.038;7.008;2023-02-28T12:52:48;77882.31;;;-142.53;37.26
4133;BME280;2080;51.038;7.008;2023-02-28T12:55:47;77895.91;;;-142.53;35.68
4133;BME280;2080;51.038;7.008;2023-02-28T12:58:40;77905.63;;;-142.53;36.15
4133;BME280;2080;51.038;7.008;2023-02-28T13:06:52;77884.25;;;-142.53;35.97
4133;BME280;2080;51.038;7.008;2023-02-28T13:09:25;77886.19;;;-142.53;36.40
4133;BME280;2080;51.038;7.008;2023-02-28T13:11:55;77921.16;;;-142.53;35.76
4133;BME280;2080;51.038;7.008;2023-02-28T13:19:42;77878.41;;;-142.53;35.62
4133;BME280;2080;51.038;7.008;2023-02-28T13:24:53;77909.50;;;-142.53;36.08
4133;BME280;2080;51.038;7.008;2023-02-28T13:27:53;77897.84;;;-142.53;35.83
4133;BME280;2080;51.038;7.008;2023-02-28T13:38:56;77808.47;;;-142.53;36.24
4133;BME280;2080;51.038;7.008;2023-02-28T13:44:23;77763.78;;;-142.53;36.55
4133;BME280;2080;51.038;7.008;2023-02-28T13:52:02;77783.19;;;-142.53;35.79
4133;BME280;2080;51.038;7.008;2023-02-28T13:54:56;77812.34;;;-142.53;35.54
4133;BME280;2080;51.038;7.008;2023-02-28T14:00:35;77769.59;;;-142.53;36.79
4133;BME280;2080;51.038;7.008;2023-02-28T14:08:59;77757.94;;;-142.53;36.00
4133;BME280;2080;51.038;7.008;2023-02-28T14:11:37;77773.47;;;-142.53;35.97
4133;BME280;2080;51.038;7.008;2023-02-28T14:14:08;77765.72;;;-142.53;36.48
4133;BME280;2080;51.038;7.008;2023-02-28T14:16:44;77761.81;;;-142.53;36.06
4133;BME280;2080;51.038;7.008;2023-02-28T14:19:19;77726.84;;;-142.53;36.33
4133;BME280;2080;51.038;7.008;2023-02-28T14:25:06;77757.94;;;-142.53;35.59
4133;BME280;2080;51.038;7.008;2023-02-28T14:30:32;77759.88;;;-142.53;36.25
4133;BME280;2080;51.038;7.008;2023-02-28T14:36:01;77754.06;;;-142.53;36.15
4133;BME280;2080;51.038;7.008;2023-02-28T14:38:35;77752.13;;;-142.53;36.71
4133;BME280;2080;51.038;7.008;2023-02-28T14:41:04;77800.69;;;-142.53;36.45
4133;BME280;2080;51.038;7.008;2023-02-28T14:43:32;77796.81;;;-142.53;36.56
4133;BME280;2080;51.038;7.008;2023-02-28T14:46:04;77757.94;;;-142.53;36.35
4133;BME280;2080;51.038;7.008;2023-02-28T14:48:36;77750.16;;;-142.53;35.87
4133;BME280;2080;51.038;7.008;2023-02-28T14:51:03;77722.97;;;-142.53;36.96
4133;BME280;2080;51.038;7.008;2023-02-28T14:53:30;77752.13;;;-142.53;36.37
4133;BME280;2080;51.038;7.008;2023-02-28T14:56:02;77773.47;;;-142.53;35.62
4133;BME280;2080;51.038;7.008;2023-02-28T14:58:33;77750.16;;;-142.53;36.30
4133;BME280;2080;51.038;7.008;2023-02-28T15:01:03;77730.75;;;-142.53;36.17
4133;BME280;2080;51.038;7.008;2023-02-28T15:06:05;77757.94;;;-142.53;36.03
4133;BME280;2080;51.038;7.008;2023-02-28T15:08:32;77740.44;;;-142.53;37.07
4133;BME280;2080;51.038;7.008;2023-02-28T15:16:23;77769.59;;;-142.53;35.74
4133;BME280;2080;51.038;7.008;2023-02-28T15:21:34;77767.66;;;-142.53;36.38
4133;BME280;2080;51.038;7.008;2023-02-28T15:26:39;77750.16;;;-142.53;36.30
4133;BME280;2080;51.038;7.008;2023-02-28T15:29:08;77761.81;;;-142.53;35.93
4133;BME280;2080;51.038;7.008;2023-02-28T15:31:43;77769.59;;;-142.53;35.37
4133;BME280;2080;51.038;7.008;2023-02-28T15:34:27;77789.03;;;-142.53;35.68
4133;BME280;2080;51.038;7.008;2023-02-28T15:36:56;77781.25;;;-142.53;36.07
4133;BME280;2080;51.038;7.008;2023-02-28T15:39:26;77792.91;;;-142.53;37.86
4133;BME280;2080;51.038;7.008;2023-02-28T15:42:10;77781.25;;;-142.53;36.61
4133;BME280;2080;51.038;7.008;2023-02-28T15:44:35;77789.03;;;-142.53;35.70
4133;BME280;2080;51.038;7.008;2023-02-28T15:47:18;77792.91;;;-142.53;36.80
4133;BME280;2080;51.038;7.008;2023-02-28T15:49:54;77796.81;;;-142.53;36.52
4133;BME280;2080;51.038;7.008;2023-02-28T15:55:09;77820.13;;;-142.53;36.62
4133;BME280;2080;51.038;7.008;2023-02-28T15:57:39;77827.88;;;-142.53;36.60